Time;durP1;ratioP1;P1;durP2;ratioP2;P2;SDS_P1;SDS_P2;PMS_P1;PMS_P2;Temp;Humidity;BMP_temperature;BMP_pressure;BME280_temperature;BME280_humidity;BME280_pressure;Samples;Min_cycle;Max_cycle;Signal;HPM_P1;HPM_P2
2021/12/11 00:00:54;;;;;;;11.1;4.6;;;;;;;;;;;;;-82
2021/12/11 00:02:06;;;;;;;;;;;;;;;1.28;91.04102;100679.6;;;;-82
2021/12/11 00:07:04;;;;;;;;;;;;;;;1.28;90.97363;100688.4;;;;-81
2021/12/11 00:12:04;;;;;;;;;;;;;;;1.26;90.98047;100694.7;;;;-81
2021/12/11 00:17:02;;;;;;;;;;;;;;;1.26;90.95898;100686.4;;;;-82
2021/12/11 00:22:06;;;;;;;;;;;;;;;1.25;91.00098;100701.6;;;;-81
2021/12/11 00:27:03;;;;;;;;;;;;;;;1.26;91.0459;100710.6;;;;-81
2021/12/11 00:30:50;;;;;;;9.7;4.6;;;;;;;;;;;;;-80
2021/12/11 00:32:04;;;;;;;;;;;;;;;1.27;91.02637;100718.7;;;;-80
2021/12/11 00:37:03;;;;;;;;;;;;;;;1.27;91.08008;100737.1;;;;-81
2021/12/11 00:42:02;;;;;;;;;;;;;;;1.28;91.10547;100746.5;;;;-81
2021/12/11 00:47:08;;;;;;;;;;;;;;;1.31;91.0791;100757.2;;;;-82
2021/12/11 00:52:02;;;;;;;;;;;;;;;1.29;90.99805;100759.6;;;;-83
2021/12/11 00:57:02;;;;;;;;;;;;;;;1.29;91.05176;100761.6;;;;-82
2021/12/11 01:00:50;;;;;;;11;4.3;;;;;;;;;;;;;-82
2021/12/11 01:02:03;;;;;;;;;;;;;;;1.29;91.09473;100773.3;;;;-80
2021/12/11 01:07:03;;;;;;;;;;;;;;;1.3;91.10938;100779.3;;;;-80
2021/12/11 01:12:06;;;;;;;;;;;;;;;1.3;91.08789;100779.8;;;;-80
2021/12/11 01:17:05;;;;;;;;;;;;;;;1.31;91.0791;100794.6;;;;-81
2021/12/11 01:22:09;;;;;;;;;;;;;;;1.3;91.03418;100795.7;;;;-82
2021/12/11 01:27:03;;;;;;;;;;;;;;;1.31;91.0791;100800.1;;;;-82
2021/12/11 01:30:47;;;;;;;9.8;4.4;;;;;;;;;;;;;-82
2021/12/11 01:32:02;;;;;;;;;;;;;;;1.32;91.08984;100819.8;;;;-81
2021/12/11 01:37:03;;;;;;;;;;;;;;;1.34;91.08496;100834.9;;;;-82
2021/12/11 01:42:04;;;;;;;;;;;;;;;1.33;91.04102;100838;;;;-82
2021/12/11 01:47:09;;;;;;;;;;;;;;;1.35;91.09766;100846.9;;;;-82
2021/12/11 01:52:04;;;;;;;;;;;;;;;1.36;91.05566;100859.3;;;;-81
2021/12/11 01:57:05;;;;;;;;;;;;;;;1.38;91.07324;100865.6;;;;-82
2021/12/11 02:00:48;;;;;;;10.2;4.4;;;;;;;;;;;;;-81
2021/12/11 02:02:05;;;;;;;;;;;;;;;1.39;91.0752;100862;;;;-81
2021/12/11 02:07:04;;;;;;;;;;;;;;;1.41;91.11133;100873;;;;-80
2021/12/11 02:12:09;;;;;;;;;;;;;;;1.43;91.11719;100885.4;;;;-81
2021/12/11 02:17:03;;;;;;;;;;;;;;;1.45;91.11914;100893;;;;-79
2021/12/11 02:22:12;;;;;;;;;;;;;;;1.48;91.07031;100896.6;;;;-81
2021/12/11 02:27:02;;;;;;;;;;;;;;;1.49;91.0957;100899.5;;;;-80
2021/12/11 02:30:47;;;;;;;11.8;5;;;;;;;;;;;;;-80
2021/12/11 02:32:05;;;;;;;;;;;;;;;1.51;91.13184;100907.2;;;;-81
2021/12/11 02:37:05;;;;;;;;;;;;;;;1.56;91.18457;100917.9;;;;-81
2021/12/11 02:42:05;;;;;;;;;;;;;;;1.58;91.21094;100924.4;;;;-81
2021/12/11 02:47:04;;;;;;;;;;;;;;;1.61;91.22949;100928.7;;;;-79
2021/12/11 02:52:06;;;;;;;;;;;;;;;1.65;91.22363;100925.9;;;;-81
2021/12/11 02:57:04;;;;;;;;;;;;;;;1.67;91.2627;100927.7;;;;-82
2021/12/11 03:00:45;;;;;;;11.6;5;;;;;;;;;;;;;-80
2021/12/11 03:02:05;;;;;;;;;;;;;;;1.71;91.26074;100944;;;;-80
2021/12/11 03:07:04;;;;;;;;;;;;;;;1.75;91.2793;100949;;;;-79
2021/12/11 03:12:03;;;;;;;;;;;;;;;1.78;91.26367;100939.1;;;;-80
2021/12/11 03:17:03;;;;;;;;;;;;;;;1.8;91.24805;100933.4;;;;-80
2021/12/11 03:22:04;;;;;;;;;;;;;;;1.83;91.25391;100926.5;;;;-80
2021/12/11 03:27:05;;;;;;;;;;;;;;;1.86;91.24902;100930.2;;;;-80
2021/12/11 03:30:43;;;;;;;11.8;5.8;;;;;;;;;;;;;-80
2021/12/11 03:32:02;;;;;;;;;;;;;;;1.89;91.25488;100926.7;;;;-80
2021/12/11 03:37:04;;;;;;;;;;;;;;;1.92;91.3252;100927.7;;;;-81
2021/12/11 03:42:04;;;;;;;;;;;;;;;1.94;91.30957;100928.5;;;;-81
2021/12/11 03:47:03;;;;;;;;;;;;;;;1.96;91.35645;100940;;;;-81
2021/12/11 03:52:02;;;;;;;;;;;;;;;1.99;91.38379;100944;;;;-80
2021/12/11 03:57:04;;;;;;;;;;;;;;;2.01;91.41113;100946.5;;;;-81
2021/12/11 04:00:43;;;;;;;14.8;6.9;;;;;;;;;;;;;-81
2021/12/11 04:02:05;;;;;;;;;;;;;;;2.04;91.47168;100951.4;;;;-81
2021/12/11 04:07:03;;;;;;;;;;;;;;;2.08;91.69727;100947.9;;;;-81
2021/12/11 04:12:02;;;;;;;;;;;;;;;2.12;91.68164;100941.3;;;;-82
2021/12/11 04:17:05;;;;;;;;;;;;;;;2.13;91.70703;100942.7;;;;-81
2021/12/11 04:22:03;;;;;;;;;;;;;;;2.17;91.82324;100938.5;;;;-81
2021/12/11 04:27:03;;;;;;;;;;;;;;;2.2;91.8291;100944;;;;-81
2021/12/11 04:30:42;;;;;;;16.3;6.7;;;;;;;;;;;;;-81
2021/12/11 04:32:03;;;;;;;;;;;;;;;2.21;91.76563;100947.5;;;;-83
2021/12/11 04:37:10;;;;;;;;;;;;;;;2.24;91.7627;100952.7;;;;-84
2021/12/11 04:42:11;;;;;;;;;;;;;;;2.27;91.72559;100954;;;;-84
2021/12/11 04:47:03;;;;;;;;;;;;;;;2.3;91.75293;100954.4;;;;-84
2021/12/11 04:52:11;;;;;;;;;;;;;;;2.31;91.69141;100958.5;;;;-84
2021/12/11 05:00:54;;;;;;;17.3;6.9;;;;;;;;;;;;;-84
2021/12/11 05:02:14;;;;;;;;;;;;;;;2.36;91.72363;100974.5;;;;-85
2021/12/11 05:07:07;;;;;;;;;;;;;;;2.38;91.70703;100985.5;;;;-84
2021/12/11 05:12:13;;;;;;;;;;;;;;;2.4;91.71094;100999.2;;;;-84
2021/12/11 05:17:02;;;;;;;;;;;;;;;2.43;91.70605;101008;;;;-85
2021/12/11 05:22:02;;;;;;;;;;;;;;;2.44;91.6543;101016.1;;;;-84
2021/12/11 05:27:02;;;;;;;;;;;;;;;2.47;91.74609;101024.9;;;;-84
2021/12/11 05:30:38;;;;;;;20.3;7.1;;;;;;;;;;;;;-86
2021/12/11 05:32:06;;;;;;;;;;;;;;;2.49;91.73926;101044.3;;;;-83
2021/12/11 05:37:02;;;;;;;;;;;;;;;2.52;91.73633;101061.9;;;;-84
2021/12/11 05:42:02;;;;;;;;;;;;;;;2.54;91.65332;101071.2;;;;-85
2021/12/11 05:47:02;;;;;;;;;;;;;;;2.55;91.59082;101081.4;;;;-82
2021/12/11 05:52:06;;;;;;;;;;;;;;;2.57;91.49512;101095.6;;;;-82
2021/12/11 05:57:05;;;;;;;;;;;;;;;2.58;91.44531;101113.4;;;;-81
2021/12/11 06:00:36;;;;;;;17.7;7.6;;;;;;;;;;;;;-81
2021/12/11 06:02:04;;;;;;;;;;;;;;;2.58;91.36914;101133.5;;;;-80
2021/12/11 06:07:03;;;;;;;;;;;;;;;2.59;91.27148;101149.9;;;;-81
2021/12/11 06:12:04;;;;;;;;;;;;;;;2.59;91.24121;101155.5;;;;-80
2021/12/11 06:17:05;;;;;;;;;;;;;;;2.59;91.21094;101167.9;;;;-80
2021/12/11 06:22:02;;;;;;;;;;;;;;;2.6;91.20215;101193.1;;;;-81
2021/12/11 06:27:02;;;;;;;;;;;;;;;2.62;91.2041;101206.6;;;;-80
2021/12/11 06:30:34;;;;;;;14.2;6.3;;;;;;;;;;;;;-80
2021/12/11 06:32:05;;;;;;;;;;;;;;;2.62;91.16211;101213;;;;-80
2021/12/11 06:37:02;;;;;;;;;;;;;;;2.64;91.1123;101230.1;;;;-81
2021/12/11 06:42:04;;;;;;;;;;;;;;;2.64;91.09082;101238.4;;;;-81
2021/12/11 06:47:04;;;;;;;;;;;;;;;2.63;91.04492;101247.2;;;;-81
2021/12/11 06:52:03;;;;;;;;;;;;;;;2.6;90.98535;101253.3;;;;-81
2021/12/11 06:57:03;;;;;;;;;;;;;;;2.58;90.90332;101252.7;;;;-81
2021/12/11 07:00:33;;;;;;;14.7;6.7;;;;;;;;;;;;;-81
2021/12/11 07:02:05;;;;;;;;;;;;;;;2.55;90.86523;101260.2;;;;-81
2021/12/11 07:07:02;;;;;;;;;;;;;;;2.51;90.80176;101273.7;;;;-80
2021/12/11 07:12:04;;;;;;;;;;;;;;;2.47;90.7168;101289.9;;;;-81
2021/12/11 07:17:05;;;;;;;;;;;;;;;2.4;90.60742;101293.2;;;;-81
2021/12/11 07:22:04;;;;;;;;;;;;;;;2.33;90.47266;101302.2;;;;-81
2021/12/11 07:27:05;;;;;;;;;;;;;;;2.24;90.31152;101318;;;;-82
2021/12/11 07:30:31;;;;;;;13.6;5.7;;;;;;;;;;;;;-80
2021/12/11 07:32:03;;;;;;;;;;;;;;;2.16;90.14453;101330;;;;-80
2021/12/11 07:37:03;;;;;;;;;;;;;;;2.07;90.09277;101340.4;;;;-80
2021/12/11 07:42:03;;;;;;;;;;;;;;;2;90.06934;101353.6;;;;-81
2021/12/11 07:47:03;;;;;;;;;;;;;;;1.93;89.97754;101362.2;;;;-80
2021/12/11 07:52:05;;;;;;;;;;;;;;;1.86;89.97363;101380;;;;-80
2021/12/11 07:57:02;;;;;;;;;;;;;;;1.82;89.99609;101397.9;;;;-80
2021/12/11 08:00:31;;;;;;;13.2;5.9;;;;;;;;;;;;;-80
2021/12/11 08:02:03;;;;;;;;;;;;;;;1.76;89.98535;101413.6;;;;-81
2021/12/11 08:07:02;;;;;;;;;;;;;;;1.71;89.96484;101424.8;;;;-81
2021/12/11 08:12:04;;;;;;;;;;;;;;;1.65;90.02734;101429;;;;-81
2021/12/11 08:17:05;;;;;;;;;;;;;;;1.58;90.00293;101432.4;;;;-81
2021/12/11 08:22:04;;;;;;;;;;;;;;;1.55;90.05957;101455.8;;;;-81
2021/12/11 08:27:10;;;;;;;;;;;;;;;1.51;90.08496;101465.6;;;;-81
2021/12/11 08:30:30;;;;;;;12.6;5.4;;;;;;;;;;;;;-80
2021/12/11 08:32:03;;;;;;;;;;;;;;;1.47;90.08594;101469.9;;;;-81
2021/12/11 08:37:04;;;;;;;;;;;;;;;1.45;90.21191;101472.6;;;;-80
2021/12/11 08:42:03;;;;;;;;;;;;;;;1.45;90.21191;101481.9;;;;-81
2021/12/11 08:47:04;;;;;;;;;;;;;;;1.47;90.28027;101485.8;;;;-80
2021/12/11 08:52:04;;;;;;;;;;;;;;;1.48;90.24121;101488;;;;-80
2021/12/11 08:57:04;;;;;;;;;;;;;;;1.52;90.26855;101507.6;;;;-81
2021/12/11 09:00:32;;;;;;;11.6;5.3;;;;;;;;;;;;;-84
2021/12/11 09:02:08;;;;;;;;;;;;;;;1.55;90.24316;101511.9;;;;-84
2021/12/11 09:07:04;;;;;;;;;;;;;;;1.61;90.14941;101514.6;;;;-84
2021/12/11 09:12:07;;;;;;;;;;;;;;;1.67;90.05469;101517.1;;;;-84
2021/12/11 09:17:03;;;;;;;;;;;;;;;1.79;90.05566;101528.9;;;;-84
2021/12/11 09:22:04;;;;;;;;;;;;;;;1.9;89.9375;101534.2;;;;-80
2021/12/11 09:27:15;;;;;;;;;;;;;;;1.93;89.98926;101537.8;;;;-79
2021/12/11 09:30:32;;;;;;;12.9;5.4;;;;;;;;;;;;;-80
2021/12/11 09:32:06;;;;;;;;;;;;;;;1.99;90.14063;101546.5;;;;-79
2021/12/11 09:37:05;;;;;;;;;;;;;;;2.05;90.18457;101549.8;;;;-79
2021/12/11 09:41:58;;;;;;;;;;;;;;;2.18;90.00781;101559.9;;;;-79
2021/12/11 09:47:05;;;;;;;;;;;;;;;2.24;90.3457;101559.3;;;;-84
2021/12/11 09:52:14;;;;;;;;;;;;;;;2.31;90.51074;101572.1;;;;-85
2021/12/11 09:57:14;;;;;;;;;;;;;;;2.38;90.60156;101580.1;;;;-85
2021/12/11 10:00:26;;;;;;;15.2;6.8;;;;;;;;;;;;;-85
2021/12/11 10:02:05;;;;;;;;;;;;;;;2.45;90.61719;101587.8;;;;-84
2021/12/11 10:07:25;;;;;;;;;;;;;;;2.55;90.3457;101590.9;;;;-85
2021/12/11 10:12:05;;;;;;;;;;;;;;;2.65;90.04199;101596.7;;;;-84
2021/12/11 10:17:07;;;;;;;;;;;;;;;2.76;89.75098;101598.2;;;;-84
2021/12/11 10:22:06;;;;;;;;;;;;;;;2.83;89.35449;101599.4;;;;-86
2021/12/11 10:27:08;;;;;;;;;;;;;;;2.86;89.33789;101605.4;;;;-85
2021/12/11 10:30:25;;;;;;;15.9;6.6;;;;;;;;;;;;;-85
2021/12/11 10:32:06;;;;;;;;;;;;;;;2.98;89.22168;101616.2;;;;-85
2021/12/11 10:37:08;;;;;;;;;;;;;;;3.02;89.26367;101626.1;;;;-78
2021/12/11 10:42:03;;;;;;;;;;;;;;;3.05;89.47363;101631.7;;;;-83
2021/12/11 10:47:03;;;;;;;;;;;;;;;3.13;89.65332;101631;;;;-82
2021/12/11 10:52:07;;;;;;;;;;;;;;;3.23;89.62207;101629.6;;;;-81
2021/12/11 10:57:02;;;;;;;;;;;;;;;3.36;89.65918;101637.7;;;;-81
2021/12/11 11:00:32;;;;;;;16.2;7.2;;;;;;;;;;;;;-80
2021/12/11 11:02:12;;;;;;;;;;;;;;;3.49;89.61133;101638.1;;;;-83
2021/12/11 11:07:02;;;;;;;;;;;;;;;3.61;89.79883;101639.9;;;;-77
2021/12/11 11:12:18;;;;;;;;;;;;;;;3.72;90.01465;101641.3;;;;-81
2021/12/11 11:22:04;;;;;;;;;;;;;;;3.96;90.15137;101644.1;;;;-83
2021/12/11 11:27:06;;;;;;;;;;;;;;;4.09;90.02832;101652.1;;;;-81
2021/12/11 11:30:27;;;;;;;19.6;8.2;;;;;;;;;;;;;-81
2021/12/11 11:32:00;;;;;;;;;;;;;;;4.2;89.90918;101656.6;;;;-82
2021/12/11 11:37:10;;;;;;;;;;;;;;;4.35;89.77832;101658.8;;;;-83
2021/12/11 11:41:56;;;;;;;;;;;;;;;4.47;89.84668;101652.2;;;;-83
2021/12/11 11:46:55;;;;;;;;;;;;;;;4.59;89.65332;101660.3;;;;-82
2021/12/11 11:51:58;;;;;;;;;;;;;;;4.7;89.56738;101667.3;;;;-81
2021/12/11 11:57:06;;;;;;;;;;;;;;;4.81;89.4043;101668.9;;;;-82
2021/12/11 12:00:31;;;;;;;21.7;8.9;;;;;;;;;;;;;-82
2021/12/11 12:02:00;;;;;;;;;;;;;;;4.87;89.58105;101673.6;;;;-80
2021/12/11 12:07:26;;;;;;;;;;;;;;;4.91;89.63281;101676.5;;;;-82
2021/12/11 12:11:57;;;;;;;;;;;;;;;4.96;89.88184;101681.5;;;;-81
2021/12/11 12:16:54;;;;;;;;;;;;;;;5.02;89.8623;101680.9;;;;-82
2021/12/11 12:21:57;;;;;;;;;;;;;;;5.14;89.82324;101688.2;;;;-81
2021/12/11 12:26:59;;;;;;;;;;;;;;;5.28;89.56836;101692.2;;;;-82
2021/12/11 12:30:27;;;;;;;19.4;7.8;;;;;;;;;;;;;-82
2021/12/11 12:31:56;;;;;;;;;;;;;;;5.4;89.78906;101695.7;;;;-83
2021/12/11 12:37:11;;;;;;;;;;;;;;;5.48;89.7168;101697.9;;;;-82
2021/12/11 12:40:59;;;;;;;;;;;;;;;5.57;89.89063;101697.4;;;;-82
2021/12/11 12:45:51;;;;;;;;;;;;;;;5.67;89.59473;101703.5;;;;-83
2021/12/11 12:51:05;;;;;;;;;;;;;;;5.7;89.58887;101716.4;;;;-82
2021/12/11 12:55:39;;;;;;;;;;;;;;;5.69;89.52344;101713.5;;;;-82
2021/12/11 13:01:02;;;;;;;;;;;;;;;5.71;89.58008;101713.1;;;;-82
2021/12/11 13:14:08;;;;;;;;;;;;;;;5.88;89.38477;101727.4;;;;-82
2021/12/11 13:22:49;;;;;;;;;;;;;;;5.94;89.1582;101721.9;;;;-83
2021/12/11 13:30:28;;;;;;;8;3.8;;;;;;;;;;;;;-81
2021/12/11 13:31:05;;;;;;;;;;;;;;;6.05;89.18066;101728.7;;;;-81
2021/12/11 13:35:43;;;;;;;;;;;;;;;6.08;88.95703;101731.3;;;;-81
2021/12/11 13:40:55;;;;;;;;;;;;;;;6.08;89.17676;101738.3;;;;-81
2021/12/11 13:45:44;;;;;;;;;;;;;;;6.1;89.21387;101741;;;;-81
2021/12/11 13:50:51;;;;;;;;;;;;;;;6.15;88.70996;101742.4;;;;-82
2021/12/11 13:55:55;;;;;;;;;;;;;;;6.13;88.90234;101745.7;;;;-84
2021/12/11 14:00:22;;;;;;;8.7;2.7;;;;;;;;;;;;;-82
2021/12/11 14:01:10;;;;;;;;;;;;;;;6.08;88.69629;101751.4;;;;-82
2021/12/11 14:05:44;;;;;;;;;;;;;;;6.03;88.35742;101760.8;;;;-82
2021/12/11 14:10:56;;;;;;;;;;;;;;;5.98;88.24805;101772.9;;;;-82
2021/12/11 14:15:49;;;;;;;;;;;;;;;5.92;88.67383;101783.7;;;;-86
2021/12/11 14:20:42;;;;;;;;;;;;;;;5.85;89.01953;101791.3;;;;-83
2021/12/11 14:25:47;;;;;;;;;;;;;;;5.78;89.35352;101795.8;;;;-81
2021/12/11 14:30:28;;;;;;;7.9;2.1;;;;;;;;;;;;;-82
2021/12/11 14:30:52;;;;;;;;;;;;;;;5.71;89.71094;101799;;;;-82
2021/12/11 14:35:47;;;;;;;;;;;;;;;5.65;90.09082;101802;;;;-82
2021/12/11 14:40:44;;;;;;;;;;;;;;;5.58;90.13184;101801.1;;;;-82
2021/12/11 14:48:56;;;;;;;;;;;;;;;5.47;90.3584;101813.5;;;;-83
2021/12/11 14:53:44;;;;;;;;;;;;;;;5.39;90.39746;101827.5;;;;-81
2021/12/11 14:58:55;;;;;;;;;;;;;;;5.29;90.51855;101828.7;;;;-81
2021/12/11 15:03:43;;;;;;;;;;;;;;;5.19;90.39941;101831.5;;;;-79
2021/12/11 15:08:47;;;;;;;;;;;;;;;5.1;90.46777;101835.1;;;;-81
2021/12/11 15:13:44;;;;;;;;;;;;;;;5.01;90.36133;101831.9;;;;-82
2021/12/11 15:18:54;;;;;;;;;;;;;;;4.92;90.36621;101830.2;;;;-81
2021/12/11 15:23:59;;;;;;;;;;;;;;;4.82;90.38867;101829.7;;;;-82
2021/12/11 15:29:00;;;;;;;;;;;;;;;4.74;90.28223;101830.3;;;;-82
2021/12/11 15:30:19;;;;;;;6;2.2;;;;;;;;;;;;;-82
2021/12/11 15:33:43;;;;;;;;;;;;;;;4.64;90.38281;101837.8;;;;-79
2021/12/11 15:38:44;;;;;;;;;;;;;;;4.55;90.41797;101847.5;;;;-78
2021/12/11 15:43:44;;;;;;;;;;;;;;;4.46;90.39746;101847.9;;;;-79
2021/12/11 15:48:45;;;;;;;;;;;;;;;4.37;90.33691;101857.5;;;;-80
2021/12/11 15:53:45;;;;;;;;;;;;;;;4.29;90.32129;101862.2;;;;-79
2021/12/11 15:58:44;;;;;;;;;;;;;;;4.23;90.28418;101860.8;;;;-79
2021/12/11 16:00:16;;;;;;;7.9;2.2;;;;;;;;;;;;;-79
2021/12/11 16:03:50;;;;;;;;;;;;;;;4.15;90.10645;101872.4;;;;-84
2021/12/11 16:08:44;;;;;;;;;;;;;;;4.09;90.15625;101884;;;;-83
2021/12/11 16:13:47;;;;;;;;;;;;;;;4.04;90.09473;101885;;;;-83
2021/12/11 16:18:54;;;;;;;;;;;;;;;3.99;90.00684;101899.6;;;;-84
2021/12/11 16:23:56;;;;;;;;;;;;;;;3.93;89.9502;101899.4;;;;-85
2021/12/11 16:28:56;;;;;;;;;;;;;;;3.88;89.96289;101901.9;;;;-86
2021/12/11 16:30:36;;;;;;;7.8;2.1;;;;;;;;;;;;;-84
2021/12/11 16:33:44;;;;;;;;;;;;;;;3.83;89.91895;101896.5;;;;-84
2021/12/11 16:38:47;;;;;;;;;;;;;;;3.8;89.92383;101892.6;;;;-85
2021/12/11 16:43:43;;;;;;;;;;;;;;;3.77;89.96289;101894.9;;;;-85
2021/12/11 16:48:47;;;;;;;;;;;;;;;3.74;89.87793;101897.2;;;;-84
2021/12/11 16:53:45;;;;;;;;;;;;;;;3.73;89.9082;101900.8;;;;-84
2021/12/11 16:58:45;;;;;;;;;;;;;;;3.71;89.87207;101916.5;;;;-83
2021/12/11 17:00:15;;;;;;;6.4;2.3;;;;;;;;;;;;;-83
2021/12/11 17:03:43;;;;;;;;;;;;;;;3.7;89.9248;101914.3;;;;-80
2021/12/11 17:08:43;;;;;;;;;;;;;;;3.69;89.97852;101918.1;;;;-82
2021/12/11 17:13:43;;;;;;;;;;;;;;;3.71;90.0459;101935.5;;;;-80
2021/12/11 17:18:44;;;;;;;;;;;;;;;3.72;90.09277;101935.2;;;;-81
2021/12/11 17:23:45;;;;;;;;;;;;;;;3.72;90.08008;101947.5;;;;-81
2021/12/11 17:28:46;;;;;;;;;;;;;;;3.72;90.14551;101941.8;;;;-81
2021/12/11 17:30:12;;;;;;;6.5;2.2;;;;;;;;;;;;;-80
2021/12/11 17:33:43;;;;;;;;;;;;;;;3.73;90.19043;101947.1;;;;-81
2021/12/11 17:38:43;;;;;;;;;;;;;;;3.74;90.20313;101948.1;;;;-80
2021/12/11 17:43:43;;;;;;;;;;;;;;;3.74;90.22559;101956.6;;;;-81
2021/12/11 17:48:42;;;;;;;;;;;;;;;3.75;90.38965;101955.3;;;;-81
2021/12/11 17:53:43;;;;;;;;;;;;;;;3.75;90.44629;101951.9;;;;-81
2021/12/11 18:00:13;;;;;;;7.1;2.6;;;;;;;;;;;;;-81
2021/12/11 18:01:48;;;;;;;;;;;;;;;3.77;90.54785;101958.6;;;;-80
2021/12/11 18:06:48;;;;;;;;;;;;;;;3.78;90.71289;101954.5;;;;-80
2021/12/11 18:11:49;;;;;;;;;;;;;;;3.79;90.70313;101951.7;;;;-81
2021/12/11 18:16:58;;;;;;;;;;;;;;;3.8;90.82715;101956.1;;;;-81
2021/12/11 18:21:49;;;;;;;;;;;;;;;3.81;90.88086;101958.6;;;;-82
2021/12/11 18:26:50;;;;;;;;;;;;;;;3.82;90.97168;101963.3;;;;-81
2021/12/11 18:30:10;;;;;;;8.1;2.9;;;;;;;;;;;;;-82
2021/12/11 18:31:48;;;;;;;;;;;;;;;3.83;90.88477;101962.5;;;;-82
2021/12/11 18:36:48;;;;;;;;;;;;;;;3.83;90.78711;101954.6;;;;-82
2021/12/11 18:41:47;;;;;;;;;;;;;;;3.82;90.91797;101948.3;;;;-82
2021/12/11 18:46:46;;;;;;;;;;;;;;;3.82;90.85254;101940.2;;;;-81
2021/12/11 18:56:47;;;;;;;;;;;;;;;3.81;90.93555;101943.5;;;;-82
2021/12/11 19:00:11;;;;;;;11.3;3.6;;;;;;;;;;;;;-81
2021/12/11 19:01:53;;;;;;;;;;;;;;;3.81;90.96777;101936.2;;;;-81
2021/12/11 19:06:50;;;;;;;;;;;;;;;3.8;90.88965;101948.1;;;;-82
2021/12/11 19:11:48;;;;;;;;;;;;;;;3.79;90.87891;101948;;;;-80
2021/12/11 19:16:48;;;;;;;;;;;;;;;3.79;90.91016;101953.5;;;;-81
2021/12/11 19:22:02;;;;;;;;;;;;;;;3.8;91.13086;101960.9;;;;-81
2021/12/11 19:26:46;;;;;;;;;;;;;;;3.81;91.15234;101963.5;;;;-81
2021/12/11 19:30:12;;;;;;;12.3;3.4;;;;;;;;;;;;;-80
2021/12/11 19:31:51;;;;;;;;;;;;;;;3.82;91.27344;101966.9;;;;-83
2021/12/11 19:37:01;;;;;;;;;;;;;;;3.83;91.3623;101978.8;;;;-84
2021/12/11 19:41:52;;;;;;;;;;;;;;;3.84;91.41895;101983.2;;;;-83
2021/12/11 19:46:47;;;;;;;;;;;;;;;3.85;91.48633;101992.7;;;;-84
2021/12/11 19:51:49;;;;;;;;;;;;;;;3.85;91.50977;101999.1;;;;-84
2021/12/11 19:56:54;;;;;;;;;;;;;;;3.86;91.56543;101999.5;;;;-85
2021/12/11 20:00:15;;;;;;;8.9;3.7;;;;;;;;;;;;;-84
2021/12/11 20:01:48;;;;;;;;;;;;;;;3.88;91.49316;101994.5;;;;-83
2021/12/11 20:06:49;;;;;;;;;;;;;;;3.88;91.51563;101991.6;;;;-83
2021/12/11 20:16:53;;;;;;;;;;;;;;;3.89;91.6582;101983;;;;-84
2021/12/11 20:21:51;;;;;;;;;;;;;;;3.91;91.8252;101981.2;;;;-83
2021/12/11 20:26:53;;;;;;;;;;;;;;;3.93;91.96973;101978.9;;;;-83
2021/12/11 20:30:11;;;;;;;12.5;4.3;;;;;;;;;;;;;-84
2021/12/11 20:31:51;;;;;;;;;;;;;;;3.93;91.89648;101979.4;;;;-84
2021/12/11 20:36:47;;;;;;;;;;;;;;;3.95;91.98633;101983.7;;;;-85
2021/12/11 20:41:52;;;;;;;;;;;;;;;3.97;92.06641;101981.8;;;;-82
2021/12/11 20:46:46;;;;;;;;;;;;;;;3.97;92.06641;101983.3;;;;-81
2021/12/11 20:51:51;;;;;;;;;;;;;;;3.98;92.12305;101987.5;;;;-82
2021/12/11 21:00:10;;;;;;;20.1;6.7;;;;;;;;;;;;;-79
2021/12/11 21:00:33;;;;;;;;;;;;;;;4;92.11621;101979.3;;;;-80
2021/12/11 21:05:28;;;;;;;;;;;;;;;4.02;92.13086;101978.1;;;;-80
2021/12/11 21:10:21;;;;;;;;;;;;;;;4.03;92.16504;101988.2;;;;-80
2021/12/11 21:15:23;;;;;;;;;;;;;;;4.05;92.30176;101984.1;;;;-80
2021/12/11 21:20:21;;;;;;;;;;;;;;;4.06;92.1709;101990.2;;;;-82
2021/12/11 21:25:25;;;;;;;;;;;;;;;4.07;92.19629;102012.9;;;;-82
2021/12/11 21:30:06;;;;;;;18.2;6.8;;;;;;;;;;;;;-81
2021/12/11 21:30:22;;;;;;;;;;;;;;;4.07;92.20996;102002.6;;;;-80
2021/12/11 21:35:20;;;;;;;;;;;;;;;4.07;92.25293;102001.3;;;;-82
2021/12/11 21:40:22;;;;;;;;;;;;;;;4.08;92.20996;101999.8;;;;-82
2021/12/11 21:45:21;;;;;;;;;;;;;;;4.09;92.15723;102003;;;;-80
2021/12/11 21:50:20;;;;;;;;;;;;;;;4.09;92.14648;102001.5;;;;-81
2021/12/11 21:55:22;;;;;;;;;;;;;;;4.1;92.12695;102002.3;;;;-81
2021/12/11 22:00:07;;;;;;;18.8;7.9;;;;;;;;;;;;;-82
2021/12/11 22:00:23;;;;;;;;;;;;;;;4.1;92.10449;101992.5;;;;-82
2021/12/11 22:05:29;;;;;;;;;;;;;;;4.11;92.15039;101999.8;;;;-81
2021/12/11 22:10:22;;;;;;;;;;;;;;;4.11;92.05273;102002.6;;;;-81
2021/12/11 22:15:34;;;;;;;;;;;;;;;4.11;92.00879;102003.8;;;;-82
2021/12/11 22:20:31;;;;;;;;;;;;;;;4.12;92.03223;102007.9;;;;-81
2021/12/11 22:25:20;;;;;;;;;;;;;;;4.13;92.00195;102011.7;;;;-81
2021/12/11 22:30:13;;;;;;;23.2;8.5;;;;;;;;;;;;;-80
2021/12/11 22:30:31;;;;;;;;;;;;;;;4.12;92;102004.8;;;;-81
2021/12/11 22:35:25;;;;;;;;;;;;;;;4.13;91.98242;101999.9;;;;-81
2021/12/11 22:40:39;;;;;;;;;;;;;;;;;;;;;
2021/12/11 22:45:21;;;;;;;;;;;;;;;4.14;91.98242;101997.6;;;;-80
2021/12/11 22:50:21;;;;;;;;;;;;;;;4.15;91.96387;101997.9;;;;-80
2021/12/11 22:55:22;;;;;;;;;;;;;;;4.16;91.94238;101994.9;;;;-80
2021/12/11 23:00:05;;;;;;;23;8.5;;;;;;;;;;;;;-79
2021/12/11 23:00:31;;;;;;;;;;;;;;;4.16;91.96582;101988.4;;;;-81
2021/12/11 23:05:21;;;;;;;;;;;;;;;4.17;92.06641;101986.1;;;;-81
2021/12/11 23:10:21;;;;;;;;;;;;;;;4.17;92.13086;101985.3;;;;-81
2021/12/11 23:15:21;;;;;;;;;;;;;;;4.17;92.15234;101983.8;;;;-81
2021/12/11 23:20:28;;;;;;;;;;;;;;;4.18;92.19824;101985.4;;;;-81
2021/12/11 23:25:23;;;;;;;;;;;;;;;4.18;92.32813;101977;;;;-81
2021/12/11 23:30:05;;;;;;;24.5;8.7;;;;;;;;;;;;;-81
2021/12/11 23:30:26;;;;;;;;;;;;;;;4.19;92.28516;101961.6;;;;-81
2021/12/11 23:35:24;;;;;;;;;;;;;;;4.19;92.35254;101954.7;;;;-81
2021/12/11 23:40:34;;;;;;;;;;;;;;;4.19;92.39551;101951.4;;;;-80
2021/12/11 23:45:23;;;;;;;;;;;;;;;4.2;92.47363;101944.3;;;;-83
2021/12/11 23:50:26;;;;;;;;;;;;;;;4.2;92.47363;101943.6;;;;-83
2021/12/11 23:55:22;;;;;;;;;;;;;;;4.23;92.62109;101948.4;;;;-81
